Time;durP1;ratioP1;P1;durP2;ratioP2;P2;SDS_P1;SDS_P2;PMS_P1;PMS_P2;Temp;Humidity;BMP_temperature;BMP_pressure;BME280_temperature;BME280_humidity;BME280_pressure;Samples;Min_cycle;Max_cycle;Signal;HPM_P1;HPM_P2
2024/02/25 00:00:52;;;;;;;3.10;2.80;;;;;;;-0.06;100.00;96395.16;5001415;28;20399;-87
2024/02/25 00:03:21;;;;;;;4.93;3.17;;;;;;;-0.08;100.00;96395.41;5001855;28;20411;-86
2024/02/25 00:05:47;;;;;;;3.13;2.80;;;;;;;-0.07;100.00;96398.75;5000866;28;20497;-87
2024/02/25 00:08:13;;;;;;;5.65;3.00;;;;;;;-0.09;100.00;96396.41;5000207;28;20461;-86
2024/02/25 00:10:39;;;;;;;4.30;2.97;;;;;;;-0.12;100.00;96401.19;5001113;28;20399;-86
2024/02/25 00:13:06;;;;;;;5.88;3.15;;;;;;;-0.10;100.00;96401.81;5001208;28;20394;-87
2024/02/25 00:15:32;;;;;;;3.85;3.00;;;;;;;-0.11;100.00;96410.59;5000669;28;20399;-87
2024/02/25 00:17:59;;;;;;;3.43;3.03;;;;;;;-0.09;100.00;96414.59;5000929;28;20406;-86
2024/02/25 00:20:26;;;;;;;3.90;3.15;;;;;;;-0.18;100.00;96405.44;5000891;28;20417;-87
2024/02/25 00:22:54;;;;;;;5.43;3.40;;;;;;;-0.11;100.00;96408.81;5000777;28;20928;-86
2024/02/25 00:25:20;;;;;;;4.03;3.00;;;;;;;-0.15;100.00;96418.00;4999570;28;20403;-85
2024/02/25 00:27:46;;;;;;;4.72;3.03;;;;;;;-0.16;100.00;96420.84;4999607;28;20489;-86
2024/02/25 00:30:13;;;;;;;4.13;2.90;;;;;;;-0.24;100.00;96418.47;4999918;28;20430;-85
2024/02/25 00:32:39;;;;;;;3.78;3.22;;;;;;;-0.27;100.00;96421.47;5000017;28;20473;-87
2024/02/25 00:35:06;;;;;;;3.33;3.03;;;;;;;-0.30;100.00;96419.31;4998904;28;20425;-85
2024/02/25 00:37:34;;;;;;;3.67;2.90;;;;;;;-0.26;100.00;96413.47;4999117;28;20823;-86
2024/02/25 00:40:00;;;;;;;3.35;2.97;;;;;;;-0.21;100.00;96424.03;4999368;28;20434;-86
2024/02/25 00:42:26;;;;;;;4.28;3.08;;;;;;;-0.19;100.00;96419.44;4998299;28;20399;-85
2024/02/25 00:44:53;;;;;;;3.27;2.97;;;;;;;-0.15;100.00;96414.63;4999002;28;20390;-84
2024/02/25 00:47:19;;;;;;;4.28;2.95;;;;;;;-0.19;100.00;96421.25;5000238;28;20927;-87
2024/02/25 00:49:46;;;;;;;3.30;2.80;;;;;;;-0.19;100.00;96410.84;4999958;28;20490;-84
2024/02/25 00:52:12;;;;;;;4.25;2.85;;;;;;;-0.22;100.00;96419.03;5000241;28;20407;-85
2024/02/25 00:54:43;;;;;;;3.63;3.15;;;;;;;-0.25;100.00;96416.88;4999675;28;20880;-86
2024/02/25 00:57:10;;;;;;;3.10;2.80;;;;;;;-0.30;100.00;96416.69;4999458;28;20430;-87
2024/02/25 00:59:36;;;;;;;3.83;3.00;;;;;;;-0.33;100.00;96419.69;5000049;28;20499;-86
2024/02/25 01:02:02;;;;;;;3.78;3.20;;;;;;;-0.34;100.00;96416.31;5000360;28;20462;-86
2024/02/25 01:04:28;;;;;;;3.50;3.20;;;;;;;-0.34;100.00;96418.91;4999462;28;20950;-88
2024/02/25 01:06:54;;;;;;;4.13;3.47;;;;;;;-0.39;100.00;96413.53;4999480;28;20467;-86
2024/02/25 01:09:20;;;;;;;5.72;3.33;;;;;;;-0.40;100.00;96402.34;4998504;28;20545;-85
2024/02/25 01:11:48;;;;;;;4.57;3.67;;;;;;;-0.33;100.00;96407.50;4999447;28;20406;-86
2024/02/25 01:14:16;;;;;;;4.68;3.13;;;;;;;-0.38;100.00;96395.09;4999642;28;20410;-85
2024/02/25 01:16:42;;;;;;;4.03;3.38;;;;;;;-0.42;100.00;96398.34;5001569;28;20445;-86
2024/02/25 01:19:08;;;;;;;4.72;3.20;;;;;;;-0.41;100.00;96397.34;5000065;28;20410;-87
2024/02/25 01:21:35;;;;;;;6.50;3.60;;;;;;;-0.44;100.00;96395.13;5000649;28;20438;-86
2024/02/25 01:24:02;;;;;;;4.38;3.28;;;;;;;-0.47;100.00;96398.16;5001027;28;20414;-86
2024/02/25 01:26:28;;;;;;;4.43;3.38;;;;;;;-0.47;100.00;96398.97;5001744;28;20422;-87
2024/02/25 01:28:56;;;;;;;5.30;3.28;;;;;;;-0.50;100.00;96403.75;5000170;28;20410;-87
2024/02/25 01:31:22;;;;;;;4.82;3.50;;;;;;;-0.54;100.00;96398.19;5000840;28;20875;-87
2024/02/25 01:33:48;;;;;;;4.05;3.30;;;;;;;-0.56;100.00;96396.78;5001653;28;20439;-87
2024/02/25 01:36:14;;;;;;;4.35;3.28;;;;;;;-0.57;100.00;96398.59;5000658;28;20426;-87
2024/02/25 01:38:41;;;;;;;5.13;3.17;;;;;;;-0.58;100.00;96389.19;5000010;28;20394;-86
2024/02/25 01:41:07;;;;;;;6.15;3.25;;;;;;;-0.57;100.00;96392.59;4999373;28;20482;-87
2024/02/25 01:43:37;;;;;;;4.60;3.70;;;;;;;-0.54;100.00;96381.78;5000980;28;20406;-88
2024/02/25 01:46:04;;;;;;;3.95;3.40;;;;;;;-0.59;100.00;96384.19;5006216;28;20410;-87
2024/02/25 01:48:32;;;;;;;3.70;3.25;;;;;;;-0.58;100.00;96383.19;5003611;28;20457;-87
2024/02/25 01:50:58;;;;;;;4.35;3.00;;;;;;;-0.60;100.00;96373.00;5000550;28;20390;-86
2024/02/25 01:53:26;;;;;;;4.30;3.45;;;;;;;-0.60;100.00;96373.00;5001221;28;20421;-87
2024/02/25 01:55:54;;;;;;;5.72;3.45;;;;;;;-0.62;100.00;96377.63;5000953;28;20513;-87
2024/02/25 01:58:20;;;;;;;4.53;3.33;;;;;;;-0.60;100.00;96369.63;5001778;28;20398;-87
2024/02/25 02:00:48;;;;;;;5.28;3.40;;;;;;;-0.56;100.00;96371.59;5006034;28;20409;-86
2024/02/25 02:03:16;;;;;;;3.75;3.00;;;;;;;-0.56;100.00;96373.41;5003184;28;20959;-86
2024/02/25 02:05:42;;;;;;;5.13;3.10;;;;;;;-0.56;100.00;96370.81;4999226;28;20864;-87
2024/02/25 02:08:08;;;;;;;3.80;3.28;;;;;;;-0.56;100.00;96369.00;4998870;28;20403;-87
2024/02/25 02:10:35;;;;;;;4.15;3.40;;;;;;;-0.60;100.00;96367.03;4998841;28;20426;-86
2024/02/25 02:13:01;;;;;;;5.53;3.28;;;;;;;-0.61;100.00;96370.63;4998242;28;20457;-85
2024/02/25 02:15:27;;;;;;;4.38;3.30;;;;;;;-0.63;100.00;96367.44;4999250;28;20394;-87
2024/02/25 02:17:54;;;;;;;3.28;2.97;;;;;;;-0.64;100.00;96368.44;4998680;28;20405;-84
2024/02/25 02:20:21;;;;;;;5.13;3.17;;;;;;;-0.70;100.00;96361.47;4999320;28;20488;-87
2024/02/25 02:22:50;;;;;;;3.50;3.20;;;;;;;-0.68;100.00;96362.88;5001377;28;20553;-87
2024/02/25 02:25:17;;;;;;;4.28;3.13;;;;;;;-0.70;100.00;96364.84;5002240;28;20942;-87
2024/02/25 02:27:44;;;;;;;3.47;3.00;;;;;;;-0.72;100.00;96359.06;5002734;28;20413;-87
2024/02/25 02:30:11;;;;;;;5.10;3.33;;;;;;;-0.71;100.00;96359.88;5003018;28;20428;-86
2024/02/25 02:32:37;;;;;;;4.00;3.15;;;;;;;-0.72;100.00;96353.88;5002890;28;20403;-87
2024/02/25 02:35:04;;;;;;;4.15;3.00;;;;;;;-0.67;100.00;96356.63;5002291;28;20403;-87
2024/02/25 02:37:31;;;;;;;3.15;2.85;;;;;;;-0.67;100.00;96354.03;5002156;28;20422;-87
2024/02/25 02:39:59;;;;;;;3.90;2.83;;;;;;;-0.69;100.00;96356.06;5002867;28;20410;-86
2024/02/25 02:42:25;;;;;;;4.00;3.10;;;;;;;-0.68;100.00;96352.47;5003786;28;20898;-86
2024/02/25 02:44:52;;;;;;;4.27;3.17;;;;;;;-0.70;100.00;96351.88;5003750;28;20405;-86
2024/02/25 02:47:23;;;;;;;4.15;3.20;;;;;;;-0.71;100.00;96350.25;5003447;28;20402;-88
2024/02/25 02:49:49;;;;;;;3.85;2.70;;;;;;;-0.74;100.00;96344.66;5003449;28;20453;-87
2024/02/25 02:52:16;;;;;;;4.00;3.03;;;;;;;-0.77;100.00;96351.09;5004591;28;20411;-88
2024/02/25 02:54:43;;;;;;;3.92;2.88;;;;;;;-0.80;100.00;96331.50;5004832;28;20418;-87
2024/02/25 02:57:11;;;;;;;6.20;3.00;;;;;;;-0.79;100.00;96342.69;5001675;28;20430;-88
2024/02/25 02:59:37;;;;;;;3.65;3.20;;;;;;;-0.81;100.00;96337.69;5003630;28;20487;-86
2024/02/25 03:02:03;;;;;;;3.63;2.80;;;;;;;-0.80;100.00;96333.31;5004627;28;20448;-86
2024/02/25 03:04:30;;;;;;;4.83;3.00;;;;;;;-0.83;100.00;96337.09;5017234;28;20425;-89
2024/02/25 03:06:56;;;;;;;8.18;3.30;;;;;;;-0.76;100.00;96336.31;5019617;28;20399;-88
2024/02/25 03:09:23;;;;;;;4.82;3.00;;;;;;;-0.79;100.00;96332.31;5008494;28;20399;-87
2024/02/25 03:11:49;;;;;;;4.97;3.60;;;;;;;-0.78;100.00;96333.91;5000560;28;20827;-87
2024/02/25 03:14:17;;;;;;;3.47;3.10;;;;;;;-0.79;100.00;96329.72;5000670;28;20802;-86
2024/02/25 03:16:44;;;;;;;4.15;3.40;;;;;;;-0.86;100.00;96331.53;5000483;28;20425;-87
2024/02/25 03:19:10;;;;;;;8.32;3.50;;;;;;;-0.87;100.00;96330.72;5001982;28;20415;-87
2024/02/25 03:21:42;;;;;;;3.90;3.20;;;;;;;-0.90;100.00;96323.34;5008969;28;20409;-85
2024/02/25 03:24:08;;;;;;;5.38;3.58;;;;;;;-0.88;100.00;96317.94;5001865;28;20457;-87
2024/02/25 03:26:34;;;;;;;3.42;3.10;;;;;;;-0.86;100.00;96318.53;5001489;28;20402;-87
2024/02/25 03:29:01;;;;;;;4.13;3.47;;;;;;;-0.86;100.00;96323.75;4999448;28;20406;-87
2024/02/25 03:31:28;;;;;;;5.33;3.20;;;;;;;-0.85;100.00;96325.34;4999697;28;20402;-87
2024/02/25 03:33:54;;;;;;;4.23;3.27;;;;;;;-0.87;100.00;96322.94;5000465;28;20531;-87
2024/02/25 03:36:20;;;;;;;3.42;3.08;;;;;;;-0.86;100.00;96326.34;4999444;28;20505;-87
2024/02/25 03:38:46;;;;;;;5.47;3.17;;;;;;;-0.90;100.00;96327.72;4999950;28;20395;-87
2024/02/25 03:41:16;;;;;;;4.75;3.30;;;;;;;-0.90;100.00;96330.31;4999435;28;20906;-87
2024/02/25 03:43:42;;;;;;;3.73;3.20;;;;;;;-0.94;100.00;96319.56;5000159;28;20438;-88
2024/02/25 03:46:09;;;;;;;4.43;3.30;;;;;;;-0.92;100.00;96325.38;4999541;28;20430;-85
2024/02/25 03:48:36;;;;;;;5.35;3.60;;;;;;;-0.90;100.00;96323.34;4999985;28;20402;-85
2024/02/25 03:51:03;;;;;;;4.03;3.30;;;;;;;-0.86;100.00;96321.94;5000564;28;20414;-85
2024/02/25 03:53:29;;;;;;;5.45;3.70;;;;;;;-0.82;100.00;96314.53;4998547;28;20395;-87
2024/02/25 03:55:55;;;;;;;5.20;3.63;;;;;;;-0.87;100.00;96316.94;4999171;28;20472;-86
2024/02/25 03:58:21;;;;;;;6.77;3.70;;;;;;;-0.88;100.00;96313.53;5000165;28;20403;-87
2024/02/25 04:00:47;;;;;;;5.93;3.63;;;;;;;-0.90;100.00;96299.16;5000454;28;20489;-87
2024/02/25 04:03:13;;;;;;;3.53;3.22;;;;;;;-0.97;100.00;96299.19;5000083;28;20402;-88
2024/02/25 04:05:41;;;;;;;6.03;4.22;;;;;;;-0.95;100.00;96309.38;5000528;28;20401;-88
2024/02/25 04:08:07;;;;;;;5.32;3.90;;;;;;;-0.98;100.00;96300.22;5003721;28;20457;-88
2024/02/25 04:10:33;;;;;;;3.80;3.30;;;;;;;-1.00;100.00;96301.41;5012357;28;20406;-85
2024/02/25 04:12:59;;;;;;;5.63;3.58;;;;;;;-1.03;100.00;96299.22;5002162;28;20485;-86
2024/02/25 04:15:27;;;;;;;3.88;3.47;;;;;;;-1.02;100.00;96295.63;5002888;28;20437;-86
2024/02/25 04:17:53;;;;;;;5.32;3.70;;;;;;;-1.02;100.00;96299.00;5002271;28;20422;-85
2024/02/25 04:20:19;;;;;;;4.78;3.33;;;;;;;-1.02;100.00;96306.00;5004016;28;20460;-86
2024/02/25 04:22:46;;;;;;;4.40;3.57;;;;;;;-1.04;100.00;96306.19;5000143;28;20445;-87
2024/02/25 04:25:13;;;;;;;3.83;3.47;;;;;;;-1.05;100.00;96309.03;5000169;28;20426;-86
2024/02/25 04:27:40;;;;;;;4.18;3.50;;;;;;;-1.06;100.00;96315.22;5008243;28;20402;-86
2024/02/25 04:30:07;;;;;;;5.13;3.72;;;;;;;-1.05;100.00;96303.84;5021117;28;20404;-88
2024/02/25 04:32:39;;;;;;;4.97;3.80;;;;;;;-1.06;100.00;96310.81;5018223;28;20404;-85
2024/02/25 04:35:06;;;;;;;4.68;3.80;;;;;;;-1.06;100.00;96313.44;5019134;28;20405;-87
2024/02/25 04:37:32;;;;;;;4.88;3.78;;;;;;;-1.05;100.00;96296.03;5019109;28;20428;-87
2024/02/25 04:40:01;;;;;;;5.40;3.50;;;;;;;-1.07;100.00;96304.03;5018849;28;20400;-87
2024/02/25 04:42:27;;;;;;;4.35;3.95;;;;;;;-1.03;100.00;96304.41;5019549;28;20408;-87
2024/02/25 04:44:53;;;;;;;4.43;3.58;;;;;;;-1.07;100.00;96309.22;5018581;28;20496;-87
2024/02/25 04:47:19;;;;;;;4.40;3.67;;;;;;;-1.06;100.00;96302.25;5018291;28;20409;-85
2024/02/25 04:49:47;;;;;;;4.32;3.70;;;;;;;-1.08;100.00;96304.22;5018431;28;20451;-86
2024/02/25 04:52:13;;;;;;;5.18;4.10;;;;;;;-1.12;100.00;96303.81;5019379;28;20396;-86
2024/02/25 04:54:42;;;;;;;4.32;3.50;;;;;;;-1.12;100.00;96301.22;5018650;28;20472;-86
2024/02/25 04:57:09;;;;;;;4.63;3.90;;;;;;;-1.19;100.00;96293.47;5018552;28;20794;-85
2024/02/25 04:59:35;;;;;;;8.15;4.65;;;;;;;-1.15;100.00;96291.28;5020128;28;20393;-85
2024/02/25 05:02:02;;;;;;;4.55;3.80;;;;;;;-1.15;100.00;96290.47;5020305;28;20475;-86
2024/02/25 05:04:28;;;;;;;6.93;4.10;;;;;;;-1.13;100.00;96291.06;5018860;28;20757;-86
2024/02/25 05:06:54;;;;;;;8.05;4.68;;;;;;;-1.07;100.00;96287.66;5018545;28;20446;-87
2024/02/25 05:09:21;;;;;;;4.90;3.90;;;;;;;-1.15;100.00;96286.06;5020315;28;20935;-83
2024/02/25 05:11:47;;;;;;;4.90;3.85;;;;;;;-1.15;100.00;96293.88;5020064;28;20392;-85
2024/02/25 05:14:15;;;;;;;5.70;4.35;;;;;;;-1.16;100.00;96297.47;5019919;28;20408;-87
2024/02/25 05:16:42;;;;;;;5.85;4.30;;;;;;;-1.19;100.00;96303.06;5019569;28;20768;-88
2024/02/25 05:19:09;;;;;;;4.65;3.72;;;;;;;-1.21;100.00;96302.47;5019603;28;20400;-86
2024/02/25 05:21:39;;;;;;;4.57;4.13;;;;;;;-1.24;100.00;96295.88;5019503;28;20477;-86
2024/02/25 05:24:05;;;;;;;4.20;3.80;;;;;;;-1.27;100.00;96300.66;5020097;28;20499;-86
2024/02/25 05:26:31;;;;;;;4.78;3.95;;;;;;;-1.25;100.00;96299.47;5020827;28;20763;-88
2024/02/25 05:28:57;;;;;;;5.43;3.65;;;;;;;-1.27;100.00;96304.06;5022738;28;20408;-86
2024/02/25 05:31:25;;;;;;;6.75;4.32;;;;;;;-1.31;100.00;96304.69;5024118;28;20408;-86
2024/02/25 05:33:51;;;;;;;4.30;3.90;;;;;;;-1.30;100.00;96303.69;5021619;28;20435;-87
2024/02/25 05:36:20;;;;;;;6.05;4.40;;;;;;;-1.38;100.00;96296.91;5022477;28;20504;-87
2024/02/25 05:38:46;;;;;;;6.70;4.53;;;;;;;-1.36;100.00;96307.09;5023450;28;20404;-86
2024/02/25 05:41:13;;;;;;;6.82;4.75;;;;;;;-1.36;100.00;96301.91;5024256;28;20427;-86
2024/02/25 05:43:39;;;;;;;6.68;4.57;;;;;;;-1.38;100.00;96296.91;5023716;28;20396;-86
2024/02/25 05:46:05;;;;;;;7.85;4.57;;;;;;;-1.34;100.00;96299.88;5025849;28;20451;-86
2024/02/25 05:48:32;;;;;;;5.07;4.10;;;;;;;-1.36;100.00;96307.09;5031461;28;20409;-85
2024/02/25 05:50:59;;;;;;;6.97;4.63;;;;;;;-1.38;100.00;96315.09;5031578;28;20467;-84
2024/02/25 05:53:25;;;;;;;4.75;4.32;;;;;;;-1.40;100.00;96314.47;5020833;28;20405;-85
2024/02/25 05:55:51;;;;;;;5.10;4.60;;;;;;;-1.44;100.00;96318.50;5019308;28;20466;-85
2024/02/25 05:58:17;;;;;;;5.33;4.63;;;;;;;-1.45;100.00;96309.09;5021770;28;20785;-86
2024/02/25 06:00:43;;;;;;;6.68;4.88;;;;;;;-1.44;100.00;96307.31;5024551;28;20424;-86
2024/02/25 06:03:09;;;;;;;7.53;4.95;;;;;;;-1.46;100.00;96320.47;5022231;28;20491;-87
2024/02/25 06:05:37;;;;;;;7.10;4.70;;;;;;;-1.52;100.00;96312.72;5020501;28;20462;-85
2024/02/25 06:08:04;;;;;;;7.07;4.72;;;;;;;-1.52;100.00;96316.09;5021908;28;20424;-88
2024/02/25 06:10:30;;;;;;;6.03;4.90;;;;;;;-1.53;100.00;96316.31;5021499;28;20956;-87
2024/02/25 06:12:56;;;;;;;8.30;4.67;;;;;;;-1.54;100.00;96307.72;5021597;28;20439;-87
2024/02/25 06:15:22;;;;;;;7.15;4.80;;;;;;;-1.56;100.00;96313.09;5022416;28;20401;-85
2024/02/25 06:17:48;;;;;;;7.65;5.28;;;;;;;-1.51;100.00;96306.53;5023254;28;20424;-86
2024/02/25 06:20:15;;;;;;;8.90;4.83;;;;;;;-1.56;100.00;96299.31;5023669;28;20401;-86
2024/02/25 06:22:43;;;;;;;7.38;5.32;;;;;;;-1.47;100.00;96302.50;5023615;28;20396;-87
2024/02/25 06:25:09;;;;;;;7.30;4.70;;;;;;;-1.51;100.00;96302.13;5024395;28;20404;-86
2024/02/25 06:27:36;;;;;;;5.30;4.40;;;;;;;-1.56;100.00;96310.50;5027266;28;20444;-81
2024/02/25 06:30:04;;;;;;;5.28;4.40;;;;;;;-1.56;100.00;96314.91;5038449;28;20408;-81
2024/02/25 06:32:31;;;;;;;7.80;5.40;;;;;;;-1.44;100.00;96315.91;5038475;28;20401;-81
2024/02/25 06:34:57;;;;;;;6.82;4.70;;;;;;;-1.47;100.00;96320.69;5020611;28;20401;-83
2024/02/25 06:37:25;;;;;;;6.95;4.50;;;;;;;-1.48;100.00;96327.66;5019339;28;20929;-82
2024/02/25 06:39:53;;;;;;;4.68;4.28;;;;;;;-1.45;100.00;96329.06;5020912;28;20404;-84
2024/02/25 06:42:19;;;;;;;5.40;4.28;;;;;;;-1.45;100.00;96326.47;5011653;28;20425;-81
2024/02/25 06:44:45;;;;;;;6.55;4.78;;;;;;;-1.46;100.00;96319.69;5008656;28;20417;-82
2024/02/25 06:47:12;;;;;;;5.45;4.25;;;;;;;-1.41;100.00;96323.25;5008797;28;20418;-85
2024/02/25 06:49:39;;;;;;;5.40;4.13;;;;;;;-1.38;100.00;96332.44;5020174;28;20416;-86
2024/02/25 06:52:06;;;;;;;8.27;4.95;;;;;;;-1.33;100.00;96335.22;5008758;28;20410;-85
2024/02/25 06:54:32;;;;;;;4.68;4.10;;;;;;;-1.35;100.00;96338.03;5005769;28;20804;-85
2024/02/25 06:56:59;;;;;;;5.63;4.18;;;;;;;-1.32;100.00;96342.03;5007622;28;20503;-85
2024/02/25 06:59:25;;;;;;;4.90;4.07;;;;;;;-1.31;100.00;96346.22;5007777;28;20409;-84
2024/02/25 07:01:52;;;;;;;4.10;3.70;;;;;;;-1.25;100.00;96348.00;4999665;28;20406;-85
2024/02/25 07:04:19;;;;;;;5.35;4.20;;;;;;;-1.19;100.00;96355.78;5005196;28;20398;-85
2024/02/25 07:06:45;;;;;;;6.10;4.32;;;;;;;-1.11;100.00;96348.78;5013594;28;20405;-84
2024/02/25 07:09:12;;;;;;;5.47;4.47;;;;;;;-1.02;100.00;96350.97;5005657;28;20486;-86
2024/02/25 07:11:38;;;;;;;5.07;3.88;;;;;;;-0.95;100.00;96353.53;5001678;28;20468;-88
2024/02/25 07:14:06;;;;;;;7.28;4.07;;;;;;;-0.86;100.00;96357.50;5002775;28;20399;-87
2024/02/25 07:16:32;;;;;;;4.90;3.95;;;;;;;-0.71;100.00;96362.47;5021031;28;20785;-85
2024/02/25 07:18:58;;;;;;;4.35;3.78;;;;;;;-0.58;100.00;96363.19;5019687;28;20419;-84
2024/02/25 07:21:26;;;;;;;3.92;3.45;;;;;;;-0.38;100.00;96357.13;5021512;28;20397;-87
2024/02/25 07:23:52;;;;;;;4.85;3.90;;;;;;;-0.23;100.00;96355.06;5019750;28;20392;-85
2024/02/25 07:26:18;;;;;;;5.97;4.45;;;;;;;-0.06;100.00;96361.34;5010922;28;20402;-86
2024/02/25 07:28:44;;;;;;;5.93;4.30;;;;;;;0.05;100.00;96357.28;5011369;28;20405;-84
2024/02/25 07:31:15;;;;;;;4.65;4.00;;;;;;;0.20;100.00;96355.19;5002283;28;20493;-86
2024/02/25 07:33:42;;;;;;;4.65;3.55;;;;;;;0.36;100.00;96358.06;4998330;28;20407;-81
2024/02/25 07:36:10;;;;;;;6.18;4.35;;;;;;;0.53;100.00;96352.31;4998320;28;20409;-82
2024/02/25 07:38:36;;;;;;;4.80;3.70;;;;;;;0.60;100.00;96348.66;4999900;28;20448;-86
2024/02/25 07:41:02;;;;;;;4.53;3.83;;;;;;;0.71;100.00;96355.78;5003487;28;20436;-85
2024/02/25 07:43:28;;;;;;;4.03;3.63;;;;;;;0.81;100.00;96355.31;5010656;28;20451;-85
2024/02/25 07:45:55;;;;;;;6.95;4.68;;;;;;;0.86;100.00;96354.66;5009130;28;20420;-84
2024/02/25 07:48:22;;;;;;;4.15;3.75;;;;;;;1.01;100.00;96355.09;5006277;28;20410;-85
2024/02/25 07:50:48;;;;;;;4.03;3.42;;;;;;;1.08;100.00;96351.41;5006316;28;20400;-84
2024/02/25 07:53:14;;;;;;;5.82;3.80;;;;;;;1.24;100.00;96355.25;5014789;28;20413;-84
2024/02/25 07:55:41;;;;;;;4.55;3.38;;;;;;;1.35;100.00;96351.94;5009113;28;20400;-86
2024/02/25 07:58:07;;;;;;;4.57;3.40;;;;;;;1.48;100.00;96350.97;5019882;28;20743;-86
2024/02/25 08:00:34;;;;;;;3.30;2.97;;;;;;;1.61;100.00;96350.00;5007621;28;20406;-86
2024/02/25 08:03:00;;;;;;;3.30;3.00;;;;;;;1.70;100.00;96344.28;5013540;28;20411;-86
2024/02/25 08:05:27;;;;;;;2.60;2.40;;;;;;;1.84;100.00;96343.09;5003958;28;20413;-85
2024/02/25 08:07:54;;;;;;;4.70;2.63;;;;;;;2.10;100.00;96338.53;5002990;28;20399;-86
2024/02/25 08:10:20;;;;;;;3.00;2.70;;;;;;;2.08;100.00;96343.16;4998441;28;20402;-84
2024/02/25 08:12:47;;;;;;;2.60;2.40;;;;;;;2.32;100.00;96337.78;5001225;28;20398;-84
2024/02/25 08:15:13;;;;;;;3.00;2.40;;;;;;;2.64;100.00;96337.47;4997653;28;20403;-85
2024/02/25 08:17:39;;;;;;;2.60;2.40;;;;;;;2.82;100.00;96333.94;4997865;28;20422;-82
2024/02/25 08:20:07;;;;;;;3.47;2.40;;;;;;;3.06;100.00;96333.72;4997896;28;20405;-84
2024/02/25 08:22:35;;;;;;;3.25;2.30;;;;;;;3.08;100.00;96331.66;5016227;28;20420;-84
2024/02/25 08:25:01;;;;;;;3.58;2.13;;;;;;;3.20;100.00;96330.84;5006152;28;20418;-84
2024/02/25 08:27:32;;;;;;;3.03;2.30;;;;;;;3.32;100.00;96324.56;5006703;28;20750;-83
2024/02/25 08:29:58;;;;;;;2.92;2.33;;;;;;;3.33;100.00;96328.78;5008797;28;20405;-84
2024/02/25 08:32:25;;;;;;;2.47;2.10;;;;;;;3.34;100.00;96324.34;5007387;28;20441;-83
2024/02/25 08:34:54;;;;;;;2.25;2.00;;;;;;;3.44;100.00;96327.97;5007474;28;21254;-85
2024/02/25 08:37:21;;;;;;;4.40;2.40;;;;;;;3.39;100.00;96319.19;5008665;28;20426;-84
2024/02/25 08:39:49;;;;;;;3.22;2.17;;;;;;;3.45;100.00;96326.16;5008111;28;20425;-84
2024/02/25 08:42:16;;;;;;;2.40;2.10;;;;;;;3.83;100.00;96320.31;5005158;28;20398;-83
2024/02/25 08:44:42;;;;;;;2.72;1.92;;;;;;;3.74;100.00;96319.09;5011379;28;20417;-84
2024/02/25 08:47:08;;;;;;;3.17;2.03;;;;;;;3.83;100.00;96313.25;5004433;28;20429;-84
2024/02/25 08:49:35;;;;;;;2.03;1.83;;;;;;;3.87;100.00;96317.00;5008879;28;20519;-84
2024/02/25 08:52:01;;;;;;;3.75;2.08;;;;;;;3.69;100.00;96311.94;5010390;28;20415;-83
2024/02/25 08:54:27;;;;;;;4.25;2.15;;;;;;;3.65;100.00;96315.25;5000151;28;20420;-82
2024/02/25 08:56:55;;;;;;;3.10;2.00;;;;;;;3.70;100.00;96321.38;5002271;28;20521;-84
2024/02/25 08:59:21;;;;;;;3.67;2.30;;;;;;;4.12;100.00;96316.66;5009528;28;20402;-81
2024/02/25 09:01:47;;;;;;;4.07;2.00;;;;;;;4.24;100.00;96309.50;5013453;28;20492;-80
2024/02/25 09:04:13;;;;;;;2.13;1.90;;;;;;;4.48;100.00;96314.59;5002700;28;20416;-82
2024/02/25 09:06:40;;;;;;;2.63;1.90;;;;;;;4.86;100.00;96313.88;5007258;28;21058;-81
2024/02/25 09:09:06;;;;;;;3.03;1.92;;;;;;;5.00;100.00;96307.25;5001180;28;20443;-82
2024/02/25 09:11:32;;;;;;;3.10;1.90;;;;;;;4.76;100.00;96311.88;5004498;28;20411;-82
2024/02/25 09:14:00;;;;;;;2.37;1.77;;;;;;;4.55;100.00;96302.13;5006881;28;20505;-80
2024/02/25 09:16:27;;;;;;;3.20;1.95;;;;;;;4.49;100.00;96297.84;5007328;28;20758;-82
2024/02/25 09:18:53;;;;;;;1.70;1.60;;;;;;;4.58;100.00;96306.91;5010673;28;20397;-82
2024/02/25 09:21:19;;;;;;;1.73;1.63;;;;;;;4.75;100.00;96309.50;5007336;28;20405;-81
2024/02/25 09:23:45;;;;;;;2.10;1.90;;;;;;;4.53;100.00;96302.38;4998854;28;20915;-82
2024/02/25 09:26:13;;;;;;;2.40;1.70;;;;;;;4.53;100.00;96291.09;5004535;28;20492;-84
2024/02/25 09:28:39;;;;;;;2.15;1.60;;;;;;;4.60;100.00;96294.34;5005055;28;20410;-84
2024/02/25 09:31:08;;;;;;;2.50;1.73;;;;;;;4.55;100.00;96299.53;5000760;28;20401;-83
2024/02/25 09:33:35;;;;;;;2.37;1.80;;;;;;;4.66;100.00;96296.78;5021779;28;20474;-84
2024/02/25 09:36:02;;;;;;;1.70;1.60;;;;;;;4.74;100.00;96295.59;5020570;28;20901;-83
2024/02/25 09:38:28;;;;;;;1.98;1.80;;;;;;;5.61;100.00;96287.78;5019877;28;20912;-82
2024/02/25 09:40:59;;;;;;;2.85;1.83;;;;;;;5.70;100.00;96283.69;5010158;28;20788;-83
2024/02/25 09:43:26;;;;;;;3.83;2.40;;;;;;;5.76;100.00;96282.69;5006028;28;20419;-83
2024/02/25 09:45:53;;;;;;;2.70;2.00;;;;;;;5.74;100.00;96270.84;5014905;28;20405;-84
2024/02/25 09:48:21;;;;;;;3.03;2.00;;;;;;;5.90;100.00;96267.38;5011252;28;20988;-83
2024/02/25 09:50:49;;;;;;;2.50;1.83;;;;;;;5.90;100.00;96270.00;5015500;28;20478;-80
2024/02/25 09:53:15;;;;;;;3.58;1.60;;;;;;;5.80;100.00;96262.78;5025856;28;20385;-84
2024/02/25 09:55:43;;;;;;;2.10;1.60;;;;;;;5.96;100.00;96271.63;5035017;28;20416;-82
2024/02/25 09:58:10;;;;;;;2.00;1.63;;;;;;;6.53;100.00;96263.16;5016716;28;20425;-85
2024/02/25 10:00:36;;;;;;;1.92;1.52;;;;;;;7.41;100.00;96269.41;5011798;28;20408;-82
2024/02/25 10:03:04;;;;;;;1.98;1.42;;;;;;;9.02;100.00;96254.75;5012112;28;20390;-85
2024/02/25 10:05:32;;;;;;;3.35;1.40;;;;;;;10.05;100.00;96236.28;5018410;28;20485;-85
2024/02/25 10:08:06;;;;;;;3.53;1.10;;;;;;;11.02;100.00;96230.16;5008370;28;20409;-86
2024/02/25 10:10:33;;;;;;;2.10;1.40;;;;;;;11.93;100.00;96235.13;5008411;28;20405;-86
2024/02/25 10:13:01;;;;;;;3.92;1.52;;;;;;;12.79;100.00;96239.03;5010707;28;20411;-84
2024/02/25 10:15:27;;;;;;;1.98;1.10;;;;;;;12.85;100.00;96236.31;5005640;28;20891;-87
2024/02/25 10:17:53;;;;;;;1.73;1.00;;;;;;;14.11;100.00;96235.63;5010976;28;20442;-87
2024/02/25 10:20:19;;;;;;;1.17;0.93;;;;;;;14.13;100.00;96238.78;5015435;28;20409;-85
2024/02/25 10:22:47;;;;;;;1.63;0.90;;;;;;;13.29;100.00;96231.25;5014183;28;20441;-82
2024/02/25 10:25:13;;;;;;;1.20;0.80;;;;;;;13.32;100.00;96233.28;5017806;28;20500;-85
2024/02/25 10:27:39;;;;;;;2.15;0.80;;;;;;;12.83;100.00;96225.19;5002973;28;20402;-83
2024/02/25 10:30:07;;;;;;;3.60;0.80;;;;;;;13.66;100.00;96221.44;5005375;28;20414;-83
2024/02/25 10:32:41;;;;;;;1.17;0.90;;;;;;;13.90;100.00;96222.78;5019824;28;20408;-84
2024/02/25 10:35:09;;;;;;;0.90;0.80;;;;;;;15.00;100.00;96207.03;5008804;28;20418;-82
2024/02/25 10:37:35;;;;;;;1.00;0.80;;;;;;;15.57;100.00;96209.75;5004813;28;20430;-81
2024/02/25 10:40:07;;;;;;;0.88;0.80;;;;;;;15.84;97.69;96190.00;5011248;28;20449;-82
2024/02/25 10:42:38;;;;;;;0.85;0.70;;;;;;;16.06;93.90;96195.19;5009302;28;20401;-82
2024/02/25 10:45:08;;;;;;;1.17;0.73;;;;;;;15.90;92.89;96196.75;5012152;28;20393;-82
2024/02/25 10:47:36;;;;;;;0.80;0.70;;;;;;;15.33;98.12;96190.69;5000532;28;20481;-82
2024/02/25 10:50:05;;;;;;;0.90;0.60;;;;;;;15.36;96.86;96192.72;5001475;28;20418;-83
2024/02/25 10:52:32;;;;;;;0.80;0.73;;;;;;;14.91;98.16;96186.78;5003390;28;20402;-87
2024/02/25 10:54:59;;;;;;;0.50;0.50;;;;;;;14.90;95.13;96196.66;5008677;28;20430;-84
2024/02/25 10:57:27;;;;;;;0.70;0.70;;;;;;;14.42;100.00;96191.25;5020069;28;20420;-82
2024/02/25 10:59:55;;;;;;;0.70;0.52;;;;;;;14.55;98.48;96185.06;5007255;28;20943;-84
2024/02/25 11:02:26;;;;;;;1.90;0.63;;;;;;;14.40;98.96;96182.78;5009094;28;20490;-84
2024/02/25 11:04:53;;;;;;;0.50;0.50;;;;;;;14.37;97.53;96182.56;5003100;28;21000;-84
2024/02/25 11:07:22;;;;;;;0.75;0.60;;;;;;;14.28;95.87;96183.28;5013579;28;20405;-83
2024/02/25 11:09:48;;;;;;;2.05;0.60;;;;;;;14.31;93.58;96182.69;5015313;28;20406;-81
2024/02/25 11:12:21;;;;;;;0.90;0.75;;;;;;;15.10;92.64;96174.78;5010713;28;20402;-82
2024/02/25 11:15:01;;;;;;;1.70;0.85;;;;;;;14.80;91.82;96178.28;5006126;28;20418;-82
2024/02/25 11:17:30;;;;;;;0.95;0.80;;;;;;;13.99;90.36;96184.78;5006164;28;20421;-84
2024/02/25 11:19:58;;;;;;;0.80;0.80;;;;;;;14.13;97.40;96166.91;5013614;28;20404;-81
2024/02/25 11:22:44;;;;;;;0.93;0.80;;;;;;;14.06;100.00;96169.97;5004614;28;20484;-81
2024/02/25 11:25:40;;;;;;;1.27;0.80;;;;;;;14.98;99.56;96153.25;5003824;28;20879;-81